Time;durP1;ratioP1;P1;durP2;ratioP2;P2;SDS_P1;SDS_P2;PMS_P1;PMS_P2;Temp;Humidity;BMP_temperature;BMP_pressure;BME280_temperature;BME280_humidity;BME280_pressure;Samples;Min_cycle;Max_cycle;Signal;HPM_P1;HPM_P2
2021/07/02 00:02:22;;;;;;;10.13;6.67;;;16.10;99.90;;;;;;4989748;28;20489;-81
2021/07/02 00:04:49;;;;;;;9.40;6.53;;;16.10;99.90;;;;;;4988986;28;20934;-84
2021/07/02 00:07:18;;;;;;;8.85;6.38;;;16.10;99.90;;;;;;4989070;28;20231;-85
2021/07/02 00:09:45;;;;;;;8.18;6.05;;;16.10;99.90;;;;;;4994908;28;20207;-81
2021/07/02 00:12:12;;;;;;;7.80;6.28;;;16.10;99.90;;;;;;5007919;28;20207;-83
2021/07/02 00:14:39;;;;;;;11.27;6.25;;;16.10;99.90;;;;;;5008627;28;20207;-85
2021/07/02 00:17:06;;;;;;;8.87;6.90;;;16.10;99.90;;;;;;5000010;28;20451;-81
2021/07/02 00:19:33;;;;;;;8.82;6.68;;;16.10;99.90;;;;;;4988751;28;20200;-80
2021/07/02 00:22:00;;;;;;;13.77;8.90;;;16.10;99.90;;;;;;4996183;28;20246;-81
2021/07/02 00:24:28;;;;;;;10.85;8.00;;;16.20;99.90;;;;;;5003366;28;20207;-82
2021/07/02 00:26:55;;;;;;;11.37;7.93;;;16.10;99.90;;;;;;4984648;28;20224;-80
2021/07/02 00:29:22;;;;;;;11.40;8.63;;;16.20;99.90;;;;;;4983382;28;20199;-80
2021/07/02 00:31:49;;;;;;;10.23;7.67;;;16.20;99.90;;;;;;4984586;28;20200;-82
2021/07/02 00:34:16;;;;;;;11.63;7.63;;;16.20;99.90;;;;;;4985138;28;20242;-81
2021/07/02 00:36:43;;;;;;;8.32;6.85;;;16.20;99.90;;;;;;4984490;28;20200;-82
2021/07/02 00:39:10;;;;;;;9.37;7.00;;;16.10;99.90;;;;;;4986307;28;20269;-79
2021/07/02 00:41:38;;;;;;;11.13;8.00;;;16.10;99.90;;;;;;4988565;28;20207;-84
2021/07/02 00:44:06;;;;;;;11.32;7.93;;;16.10;99.90;;;;;;4988830;28;20211;-84
2021/07/02 00:46:32;;;;;;;12.57;8.35;;;16.10;99.90;;;;;;4989285;28;20830;-80
2021/07/02 00:49:00;;;;;;;12.43;8.60;;;16.10;99.90;;;;;;4989339;28;20204;-81
2021/07/02 00:51:29;;;;;;;13.63;8.02;;;16.20;99.90;;;;;;4988864;28;20901;-79
2021/07/02 00:53:56;;;;;;;10.90;7.35;;;16.20;99.90;;;;;;4989601;28;20593;-82
2021/07/02 00:56:23;;;;;;;9.18;7.13;;;16.10;99.90;;;;;;4989581;28;20228;-80
2021/07/02 00:58:52;;;;;;;8.45;6.97;;;16.20;99.90;;;;;;4990693;28;20253;-81
2021/07/02 01:01:18;;;;;;;8.70;6.53;;;16.10;99.90;;;;;;4990988;28;20204;-82
2021/07/02 01:03:47;;;;;;;9.77;7.10;;;16.10;99.90;;;;;;4989096;28;20875;-82
2021/07/02 01:06:16;;;;;;;10.32;7.60;;;16.20;99.90;;;;;;4989679;28;20231;-80
2021/07/02 01:08:44;;;;;;;11.70;8.00;;;16.20;99.90;;;;;;4990146;28;20204;-80
2021/07/02 01:11:12;;;;;;;9.30;7.27;;;16.20;99.90;;;;;;4988069;28;20204;-79
2021/07/02 01:13:39;;;;;;;10.23;7.67;;;16.20;99.90;;;;;;4987570;28;20644;-81
2021/07/02 01:16:08;;;;;;;10.20;7.70;;;16.20;99.90;;;;;;5002355;28;20207;-80
2021/07/02 01:18:35;;;;;;;10.25;7.60;;;16.20;99.90;;;;;;5006981;28;20199;-80
2021/07/02 01:21:03;;;;;;;14.52;9.63;;;16.10;99.90;;;;;;5001020;28;20634;-85
2021/07/02 01:23:31;;;;;;;13.77;10.10;;;16.20;99.90;;;;;;4989269;28;20214;-80
2021/07/02 01:25:58;;;;;;;14.45;9.43;;;16.20;99.90;;;;;;4988006;28;20230;-80
2021/07/02 01:28:25;;;;;;;13.10;8.97;;;16.20;99.90;;;;;;4989541;28;20619;-80
2021/07/02 01:30:52;;;;;;;13.20;8.83;;;16.20;99.90;;;;;;4989331;28;20232;-86
2021/07/02 01:33:19;;;;;;;10.17;8.53;;;16.10;99.90;;;;;;4987993;28;20216;-82
2021/07/02 01:35:51;;;;;;;9.95;7.05;;;16.10;99.90;;;;;;4988720;28;20195;-85
2021/07/02 01:38:19;;;;;;;16.80;10.35;;;16.10;99.90;;;;;;4987658;28;20192;-84
2021/07/02 01:40:46;;;;;;;15.53;8.90;;;16.20;99.90;;;;;;4987140;28;20200;-80
2021/07/02 01:43:13;;;;;;;15.77;9.77;;;16.20;99.90;;;;;;4987313;28;20212;-80
2021/07/02 01:45:39;;;;;;;15.00;9.88;;;16.10;99.90;;;;;;4987929;28;20659;-81
2021/07/02 01:48:07;;;;;;;12.47;8.30;;;16.20;99.90;;;;;;4986917;28;20192;-80
2021/07/02 01:50:33;;;;;;;11.93;7.90;;;16.20;99.90;;;;;;4987473;28;20192;-81
2021/07/02 01:53:00;;;;;;;11.38;7.70;;;16.20;99.90;;;;;;4986542;28;20554;-80
2021/07/02 01:55:28;;;;;;;10.45;7.75;;;16.20;99.90;;;;;;5000539;28;20246;-80
2021/07/02 01:57:55;;;;;;;10.40;8.13;;;16.20;99.90;;;;;;5006212;28;20215;-81
2021/07/02 02:00:23;;;;;;;10.88;8.43;;;16.20;99.90;;;;;;4989454;28;20302;-80
2021/07/02 02:02:50;;;;;;;13.23;9.70;;;16.20;99.90;;;;;;5006786;28;20199;-82
2021/07/02 02:05:17;;;;;;;10.30;7.75;;;16.20;99.90;;;;;;5005876;28;20219;-80
2021/07/02 02:07:44;;;;;;;12.63;8.40;;;16.20;99.90;;;;;;5006188;28;20230;-82
2021/07/02 02:10:13;;;;;;;12.00;8.60;;;16.20;99.90;;;;;;4994515;28;20209;-82
2021/07/02 02:12:41;;;;;;;12.20;8.47;;;16.20;99.90;;;;;;4988907;28;20831;-82
2021/07/02 02:15:08;;;;;;;11.98;8.45;;;16.20;99.90;;;;;;4988481;28;20202;-85
2021/07/02 02:17:35;;;;;;;9.37;7.47;;;16.10;99.90;;;;;;4989504;28;20192;-82
2021/07/02 02:20:06;;;;;;;8.00;6.80;;;16.10;99.90;;;;;;4988829;28;20208;-82
2021/07/02 02:22:33;;;;;;;11.35;7.95;;;16.10;99.90;;;;;;4986603;28;20511;-80
2021/07/02 02:25:00;;;;;;;10.15;7.30;;;16.10;99.90;;;;;;4985823;28;20211;-81
2021/07/02 02:27:28;;;;;;;9.70;6.93;;;16.10;99.90;;;;;;4986032;28;20227;-81
2021/07/02 02:29:56;;;;;;;9.38;7.32;;;16.10;99.90;;;;;;4985673;28;20247;-80
2021/07/02 02:32:24;;;;;;;11.02;7.60;;;16.10;99.90;;;;;;4985650;28;20208;-79
2021/07/02 02:34:51;;;;;;;9.35;7.18;;;16.10;99.90;;;;;;4985982;28;20204;-81
2021/07/02 02:37:23;;;;;;;9.05;7.05;;;16.10;99.90;;;;;;4986069;28;20212;-83
2021/07/02 02:39:50;;;;;;;10.07;6.03;;;16.10;99.90;;;;;;4986606;28;20199;-81
2021/07/02 02:42:17;;;;;;;9.80;6.68;;;16.10;99.90;;;;;;4985860;28;20208;-82
2021/07/02 02:44:44;;;;;;;11.77;7.05;;;16.10;99.90;;;;;;4986531;28;20215;-81
2021/07/02 02:47:12;;;;;;;8.23;6.82;;;16.10;99.90;;;;;;4990058;28;20238;-80
2021/07/02 02:49:39;;;;;;;10.82;7.68;;;16.10;99.90;;;;;;5006362;28;20199;-80
2021/07/02 02:52:06;;;;;;;7.50;6.40;;;16.10;99.90;;;;;;4989623;28;20215;-83
2021/07/02 02:54:33;;;;;;;8.07;7.05;;;16.10;99.90;;;;;;4985573;28;20894;-80
2021/07/02 02:57:07;;;;;;;10.88;8.63;;;16.10;99.90;;;;;;4985944;28;20229;-81
2021/07/02 02:59:35;;;;;;;10.90;8.20;;;16.10;99.90;;;;;;4986971;28;20878;-81
2021/07/02 03:02:03;;;;;;;11.43;7.93;;;16.10;99.90;;;;;;4984594;28;20208;-81
2021/07/02 03:04:35;;;;;;;11.38;8.15;;;16.10;99.90;;;;;;4987079;28;20195;-80
2021/07/02 03:07:02;;;;;;;11.82;8.43;;;16.10;99.90;;;;;;5005426;28;20258;-78
2021/07/02 03:09:29;;;;;;;10.20;7.93;;;16.10;99.90;;;;;;5005107;28;20203;-80
2021/07/02 03:11:56;;;;;;;9.32;7.65;;;16.10;99.90;;;;;;4993586;28;20212;-82
2021/07/02 03:14:24;;;;;;;11.82;8.77;;;16.10;99.90;;;;;;4985035;28;20607;-80
2021/07/02 03:16:53;;;;;;;11.68;8.70;;;16.10;99.90;;;;;;4984994;28;20208;-81
2021/07/02 03:19:20;;;;;;;10.75;8.70;;;16.10;99.90;;;;;;4994159;28;20952;-82
2021/07/02 03:21:49;;;;;;;9.30;7.93;;;16.10;99.90;;;;;;4997012;28;20211;-80
2021/07/02 03:24:16;;;;;;;12.18;9.52;;;16.10;99.90;;;;;;5005141;28;20211;-79
2021/07/02 03:26:43;;;;;;;11.32;7.97;;;16.10;99.90;;;;;;4993413;28;20231;-81
2021/07/02 03:29:10;;;;;;;8.85;7.22;;;16.10;99.90;;;;;;4995862;28;20218;-80
2021/07/02 03:31:36;;;;;;;10.90;8.20;;;16.10;99.90;;;;;;4987444;28;20216;-80
2021/07/02 03:34:04;;;;;;;8.30;6.65;;;16.10;99.90;;;;;;4986613;28;20767;-82
2021/07/02 03:36:31;;;;;;;11.18;7.43;;;16.10;99.90;;;;;;4977189;28;20216;-82
2021/07/02 03:39:00;;;;;;;8.90;6.07;;;16.10;99.90;;;;;;4967954;28;20668;-80
2021/07/02 03:41:27;;;;;;;6.22;4.93;;;16.10;99.90;;;;;;4966207;28;20546;-79
2021/07/02 03:43:53;;;;;;;5.85;4.65;;;16.10;99.90;;;;;;4966513;28;20211;-81
2021/07/02 03:46:21;;;;;;;5.57;4.63;;;16.10;99.90;;;;;;4964744;28;20553;-79
2021/07/02 03:48:48;;;;;;;8.33;6.13;;;16.10;99.90;;;;;;4965834;28;20211;-83
2021/07/02 03:51:15;;;;;;;7.20;5.20;;;16.10;99.90;;;;;;4981031;28;20215;-80
2021/07/02 03:53:42;;;;;;;5.90;4.63;;;16.10;99.90;;;;;;4984071;28;20207;-81
2021/07/02 03:56:10;;;;;;;4.68;4.18;;;16.10;99.90;;;;;;4975328;28;20229;-84
2021/07/02 03:58:38;;;;;;;5.80;3.92;;;16.10;99.90;;;;;;4967434;28;20200;-85
2021/07/02 04:01:05;;;;;;;4.43;2.80;;;16.10;99.90;;;;;;4974411;28;20212;-85
2021/07/02 04:03:32;;;;;;;3.72;2.88;;;16.10;99.90;;;;;;4987173;28;20598;-84
2021/07/02 04:05:59;;;;;;;4.95;3.70;;;16.10;99.90;;;;;;4986688;28;20204;-85
2021/07/02 04:08:26;;;;;;;4.73;3.30;;;16.10;99.90;;;;;;4985614;28;20215;-86
2021/07/02 04:10:54;;;;;;;3.40;2.80;;;16.10;99.90;;;;;;4973980;28;20549;-87
2021/07/02 04:13:22;;;;;;;5.63;3.60;;;16.10;99.90;;;;;;4966710;28;20212;-84
2021/07/02 04:15:53;;;;;;;6.40;4.10;;;16.10;99.90;;;;;;4972514;28;20296;-82
2021/07/02 04:18:20;;;;;;;4.30;3.45;;;16.10;99.90;;;;;;4973115;28;20204;-85
2021/07/02 04:20:47;;;;;;;3.80;3.37;;;16.10;99.90;;;;;;4986355;28;20849;-85
2021/07/02 04:23:14;;;;;;;6.00;3.90;;;16.00;99.90;;;;;;4992100;28;20204;-85
2021/07/02 04:25:41;;;;;;;5.00;3.75;;;16.10;99.90;;;;;;4991997;28;20493;-83
2021/07/02 04:28:08;;;;;;;4.93;3.73;;;16.00;99.90;;;;;;4991775;28;20323;-85
2021/07/02 04:30:36;;;;;;;5.23;4.47;;;16.00;99.90;;;;;;4972313;28;20622;-86
2021/07/02 04:33:03;;;;;;;5.90;4.88;;;16.00;99.90;;;;;;4980150;28;20211;-82
2021/07/02 04:35:30;;;;;;;5.27;4.77;;;16.00;99.90;;;;;;4992183;28;20188;-79
2021/07/02 04:37:57;;;;;;;5.05;4.63;;;16.10;99.90;;;;;;4976121;28;20208;-84
2021/07/02 04:40:23;;;;;;;4.87;4.33;;;16.10;99.90;;;;;;4972000;28;20208;-85
2021/07/02 04:42:50;;;;;;;5.45;4.57;;;16.10;99.90;;;;;;4971520;28;20204;-86
2021/07/02 04:45:17;;;;;;;7.95;5.68;;;16.10;99.90;;;;;;4970384;28;20590;-84
2021/07/02 04:47:45;;;;;;;6.47;5.03;;;16.10;99.90;;;;;;4970580;28;20224;-83
2021/07/02 04:50:12;;;;;;;5.93;4.93;;;16.10;99.90;;;;;;4969361;28;20228;-84
2021/07/02 04:52:40;;;;;;;6.23;5.33;;;16.20;99.90;;;;;;4970155;28;20235;-82
2021/07/02 04:55:08;;;;;;;5.13;4.40;;;16.20;99.90;;;;;;4976244;28;20236;-83
2021/07/02 04:57:34;;;;;;;7.25;5.45;;;16.20;99.90;;;;;;4974567;28;20770;-85
2021/07/02 05:00:02;;;;;;;6.35;4.72;;;16.20;99.90;;;;;;4971239;28;20204;-81
2021/07/02 05:02:29;;;;;;;5.43;4.60;;;16.30;99.90;;;;;;4970709;28;20200;-86
2021/07/02 05:04:57;;;;;;;5.90;5.27;;;16.30;99.90;;;;;;4985269;28;20224;-86
2021/07/02 05:07:24;;;;;;;5.03;4.53;;;16.20;99.90;;;;;;4990729;28;20228;-85
2021/07/02 05:09:51;;;;;;;5.93;4.70;;;16.30;99.90;;;;;;4974381;28;20211;-81
2021/07/02 05:12:18;;;;;;;5.07;4.43;;;16.30;99.90;;;;;;4970862;28;20224;-80
2021/07/02 05:14:45;;;;;;;4.60;3.90;;;16.30;99.90;;;;;;4970967;28;20205;-84
2021/07/02 05:17:12;;;;;;;5.85;4.40;;;16.20;99.90;;;;;;4970024;28;20201;-87
2021/07/02 05:19:41;;;;;;;7.03;4.95;;;16.20;99.90;;;;;;4968926;28;20204;-84
2021/07/02 05:22:13;;;;;;;6.10;4.60;;;16.30;99.90;;;;;;4969203;28;20212;-83
2021/07/02 05:24:40;;;;;;;11.32;7.40;;;16.30;99.90;;;;;;4968499;28;20209;-82
2021/07/02 05:27:07;;;;;;;9.82;7.40;;;16.30;99.90;;;;;;4976888;28;20224;-81
2021/07/02 05:29:34;;;;;;;16.45;10.65;;;16.30;99.90;;;;;;4988138;28;20327;-81
2021/07/02 05:32:01;;;;;;;13.40;9.82;;;16.30;99.90;;;;;;4974201;28;20849;-79
2021/07/02 05:34:28;;;;;;;17.33;10.82;;;16.30;99.90;;;;;;4968220;28;20771;-80
2021/07/02 05:36:55;;;;;;;12.75;9.68;;;16.30;99.90;;;;;;4967453;28;20208;-81
2021/07/02 05:39:23;;;;;;;17.20;10.30;;;16.30;99.90;;;;;;4967469;28;20213;-80
2021/07/02 05:41:50;;;;;;;16.70;9.80;;;16.30;99.90;;;;;;4967537;28;20208;-82
2021/07/02 05:44:17;;;;;;;13.00;8.90;;;16.30;99.90;;;;;;4966898;28;20207;-79
2021/07/02 05:46:44;;;;;;;13.33;9.70;;;16.30;99.90;;;;;;4967940;28;20232;-80
2021/07/02 05:49:12;;;;;;;14.53;9.20;;;16.30;99.90;;;;;;4966938;28;20204;-82
2021/07/02 05:51:39;;;;;;;11.50;8.73;;;16.30;99.90;;;;;;4967909;28;20205;-80
2021/07/02 05:54:06;;;;;;;14.23;9.50;;;16.30;99.90;;;;;;4949658;28;20984;-80
2021/07/02 05:56:34;;;;;;;11.37;8.07;;;16.30;99.90;;;;;;4967677;28;20689;-82
2021/07/02 05:59:01;;;;;;;14.97;8.90;;;16.30;99.90;;;;;;4968952;28;20600;-81
2021/07/02 06:01:29;;;;;;;14.40;8.93;;;16.30;99.90;;;;;;4968073;28;20209;-80
2021/07/02 06:03:58;;;;;;;11.38;8.32;;;16.30;99.90;;;;;;4967084;28;20205;-87
2021/07/02 06:06:24;;;;;;;13.17;8.83;;;16.30;99.90;;;;;;4966719;28;20200;-78
2021/07/02 06:08:52;;;;;;;14.75;8.98;;;16.30;99.90;;;;;;4967236;28;20209;-81
2021/07/02 06:11:20;;;;;;;13.30;9.53;;;16.40;99.90;;;;;;4966482;28;20212;-81
2021/07/02 06:13:48;;;;;;;19.13;11.43;;;16.40;99.90;;;;;;4979208;28;20212;-78
2021/07/02 06:16:15;;;;;;;18.05;10.57;;;16.40;99.90;;;;;;4984137;28;20973;-83
2021/07/02 06:18:42;;;;;;;17.87;11.03;;;16.50;99.90;;;;;;4966605;28;20896;-78
2021/07/02 06:21:09;;;;;;;20.73;12.77;;;16.50;99.90;;;;;;4965615;28;20208;-81
2021/07/02 06:23:37;;;;;;;17.77;11.05;;;16.50;99.90;;;;;;4965763;28;20212;-78
2021/07/02 06:26:05;;;;;;;15.87;12.00;;;16.40;99.90;;;;;;4966015;28;20201;-81
2021/07/02 06:28:33;;;;;;;18.10;10.87;;;16.50;99.90;;;;;;4965796;28;20228;-81
2021/07/02 06:31:02;;;;;;;14.75;9.90;;;16.50;99.90;;;;;;4966476;28;20580;-81
2021/07/02 06:33:29;;;;;;;13.18;9.43;;;16.50;99.90;;;;;;4965075;28;20543;-79
2021/07/02 06:35:56;;;;;;;11.65;8.75;;;16.50;99.90;;;;;;4965498;28;20209;-84
2021/07/02 06:38:23;;;;;;;14.57;10.05;;;16.50;99.90;;;;;;4965421;28;20209;-82
2021/07/02 06:40:51;;;;;;;9.95;8.07;;;16.60;99.90;;;;;;4965394;28;20204;-80
2021/07/02 06:43:18;;;;;;;12.27;8.05;;;16.70;99.90;;;;;;4999123;28;20211;-80
2021/07/02 06:45:45;;;;;;;12.48;8.20;;;16.70;99.90;;;;;;5001379;28;20207;-80
2021/07/02 06:48:13;;;;;;;10.43;8.13;;;16.70;99.90;;;;;;4966661;28;20224;-82
2021/07/02 06:50:43;;;;;;;12.82;9.18;;;16.80;99.90;;;;;;4985918;28;20199;-84
2021/07/02 06:53:10;;;;;;;8.40;7.15;;;16.80;99.90;;;;;;4985331;28;20204;-79
2021/07/02 06:55:38;;;;;;;11.05;7.60;;;16.90;99.90;;;;;;4983462;28;20517;-80
2021/07/02 06:58:08;;;;;;;9.85;7.78;;;16.90;99.90;;;;;;4965979;28;20203;-83
2021/07/02 07:00:37;;;;;;;10.23;7.82;;;16.90;99.90;;;;;;4966997;28;20208;-83
2021/07/02 07:03:04;;;;;;;9.02;7.25;;;17.00;99.90;;;;;;4965509;28;20263;-81
2021/07/02 07:05:32;;;;;;;9.25;7.63;;;17.00;99.90;;;;;;4967303;28;20202;-82
2021/07/02 07:07:59;;;;;;;11.80;8.23;;;17.00;99.90;;;;;;4966955;28;20224;-82
2021/07/02 07:10:27;;;;;;;11.27;8.30;;;17.10;99.90;;;;;;4965565;28;20507;-81
2021/07/02 07:12:54;;;;;;;10.88;8.57;;;17.20;99.90;;;;;;4967140;28;20203;-82
2021/07/02 07:15:21;;;;;;;10.75;8.95;;;17.30;99.90;;;;;;4966488;28;20216;-83
2021/07/02 07:17:47;;;;;;;9.05;7.55;;;17.40;99.90;;;;;;4966309;28;20546;-80
2021/07/02 07:20:15;;;;;;;13.82;8.48;;;17.50;99.90;;;;;;4966683;28;20250;-80
2021/07/02 07:22:43;;;;;;;13.07;8.35;;;17.60;99.90;;;;;;4967254;28;20204;-80
2021/07/02 07:25:11;;;;;;;13.43;9.30;;;17.70;99.90;;;;;;4965813;28;20211;-81
2021/07/02 07:27:38;;;;;;;11.20;8.10;;;17.80;99.90;;;;;;4966622;28;20248;-83
2021/07/02 07:30:05;;;;;;;10.93;7.97;;;17.80;99.90;;;;;;4965428;28;20936;-80
2021/07/02 07:32:34;;;;;;;10.48;8.10;;;17.80;99.90;;;;;;4965891;28;20204;-81
2021/07/02 07:35:02;;;;;;;11.38;8.45;;;17.80;99.90;;;;;;4965488;28;20315;-79
2021/07/02 07:37:32;;;;;;;13.43;8.30;;;17.90;99.90;;;;;;4965213;28;20259;-82
2021/07/02 07:40:00;;;;;;;10.43;8.07;;;17.90;99.90;;;;;;4964675;28;20212;-83
2021/07/02 07:42:27;;;;;;;9.90;8.00;;;18.00;99.90;;;;;;4965488;28;20208;-81
2021/07/02 07:44:54;;;;;;;9.02;7.70;;;18.00;99.90;;;;;;4965261;28;20213;-84
2021/07/02 07:47:21;;;;;;;8.15;7.22;;;18.00;99.90;;;;;;4964555;28;20587;-83
2021/07/02 07:49:48;;;;;;;16.10;10.10;;;18.00;99.90;;;;;;4964721;28;20235;-83
2021/07/02 07:52:18;;;;;;;16.27;10.98;;;17.90;99.90;;;;;;4963767;28;20204;-81
2021/07/02 07:54:45;;;;;;;16.48;10.60;;;17.90;99.90;;;;;;4965456;28;20707;-84
2021/07/02 07:57:13;;;;;;;16.90;11.63;;;17.80;99.90;;;;;;4972993;28;20216;-82
2021/07/02 07:59:40;;;;;;;15.35;10.43;;;17.80;99.90;;;;;;4976341;28;20211;-82
2021/07/02 08:02:07;;;;;;;18.05;12.65;;;17.80;99.90;;;;;;4980855;28;20905;-81
2021/07/02 08:04:34;;;;;;;16.02;11.55;;;17.90;99.90;;;;;;4964677;28;20215;-81
2021/07/02 08:07:01;;;;;;;18.38;13.23;;;18.10;99.90;;;;;;4964203;28;20316;-83
2021/07/02 08:09:29;;;;;;;17.30;12.45;;;18.30;99.90;;;;;;4965722;28;20232;-82
2021/07/02 08:11:56;;;;;;;18.58;12.50;;;18.50;99.90;;;;;;4964808;28;20209;-81
2021/07/02 08:14:24;;;;;;;20.77;11.27;;;18.80;99.90;;;;;;4963929;28;20240;-82
2021/07/02 08:16:51;;;;;;;13.50;10.35;;;19.40;99.90;;;;;;4965208;28;20220;-83
2021/07/02 08:19:18;;;;;;;14.90;10.85;;;19.70;99.90;;;;;;4965059;28;20212;-82
2021/07/02 08:21:44;;;;;;;15.48;11.15;;;19.90;99.90;;;;;;4963719;28;20212;-82
2021/07/02 08:24:11;;;;;;;17.63;11.07;;;20.20;99.90;;;;;;4964318;28;20208;-80
2021/07/02 08:26:38;;;;;;;13.90;10.50;;;20.30;99.90;;;;;;4965116;28;20193;-83
2021/07/02 08:29:23;;;;;;;13.40;10.40;;;20.30;99.90;;;;;;4963957;28;20272;-81
2021/07/02 08:31:56;;;;;;;17.92;10.43;;;20.50;99.90;;;;;;4964369;28;20629;-81
2021/07/02 08:34:23;;;;;;;14.07;9.15;;;20.60;99.90;;;;;;4966246;28;20613;-84
2021/07/02 08:36:50;;;;;;;12.23;9.30;;;20.50;99.90;;;;;;4964647;28;20204;-81
2021/07/02 08:39:18;;;;;;;13.07;9.05;;;20.40;99.90;;;;;;4979016;28;20204;-81
2021/07/02 08:41:45;;;;;;;16.33;9.65;;;20.30;99.90;;;;;;4985555;28;20204;-79
2021/07/02 08:44:12;;;;;;;13.63;9.38;;;20.50;99.90;;;;;;4983563;28;20211;-80
2021/07/02 08:46:42;;;;;;;13.48;8.90;;;21.00;99.90;;;;;;4980018;28;20209;-80
2021/07/02 08:49:12;;;;;;;13.88;8.32;;;21.70;99.90;;;;;;4964366;28;20228;-81
2021/07/02 08:51:39;;;;;;;11.43;8.57;;;22.10;99.90;;;;;;4973174;28;20212;-80
2021/07/02 08:54:08;;;;;;;9.73;8.02;;;22.30;99.90;;;;;;4984373;28;20211;-81
2021/07/02 08:56:35;;;;;;;9.18;8.20;;;22.70;99.90;;;;;;4983831;28;20227;-80
2021/07/02 08:59:02;;;;;;;10.02;7.57;;;23.20;99.90;;;;;;4983882;28;20200;-81
2021/07/02 09:01:37;;;;;;;8.80;6.95;;;23.40;99.90;;;;;;4976644;28;20232;-80
2021/07/02 09:04:22;;;;;;;8.50;6.97;;;23.20;99.90;;;;;;4986696;28;20600;-80
2021/07/02 09:07:03;;;;;;;10.27;7.75;;;22.90;99.90;;;;;;4987435;28;20290;-81
2021/07/02 09:09:48;;;;;;;10.13;7.25;;;22.50;99.90;;;;;;4985279;28;20235;-81
2021/07/02 09:12:16;;;;;;;9.45;7.68;;;22.10;99.90;;;;;;4986469;28;20208;-81
2021/07/02 09:14:56;;;;;;;7.55;6.75;;;21.80;99.90;;;;;;4986968;28;20612;-79
2021/07/02 09:17:24;;;;;;;9.98;7.05;;;21.60;99.90;;;;;;4977911;28;20204;-82
2021/07/02 09:20:14;;;;;;;10.88;7.03;;;21.70;99.90;;;;;;4966739;28;20197;-81
2021/07/02 09:22:47;;;;;;;7.65;6.28;;;22.10;99.90;;;;;;4966821;28;20200;-82
2021/07/02 09:25:24;;;;;;;8.18;6.57;;;22.50;99.90;;;;;;4966132;28;20213;-81
2021/07/02 09:27:54;;;;;;;8.80;6.50;;;22.90;99.90;;;;;;4974228;28;20239;-80
2021/07/02 09:30:23;;;;;;;7.82;6.07;;;23.20;99.90;;;;;;4971438;28;20236;-83
2021/07/02 09:32:52;;;;;;;8.48;6.78;;;23.50;99.90;;;;;;4980236;28;20205;-82
2021/07/02 09:35:23;;;;;;;9.07;6.25;;;23.70;99.90;;;;;;4976396;28;20216;-82
2021/07/02 09:37:52;;;;;;;7.40;6.18;;;24.00;99.90;;;;;;4981906;28;20211;-82
2021/07/02 09:40:22;;;;;;;9.65;6.57;;;24.00;99.90;;;;;;4977404;28;20203;-82
2021/07/02 09:42:57;;;;;;;6.93;6.05;;;24.40;99.90;;;;;;4967308;28;20204;-82
2021/07/02 09:45:24;;;;;;;7.47;5.75;;;24.60;99.90;;;;;;4967929;28;20189;-86
2021/07/02 09:47:51;;;;;;;13.63;6.85;;;24.70;99.90;;;;;;4968756;28;20224;-84
2021/07/02 09:50:25;;;;;;;9.02;6.45;;;25.00;99.90;;;;;;4969374;28;20231;-85
2021/07/02 09:52:55;;;;;;;8.07;6.25;;;25.20;99.90;;;;;;4967958;28;20222;-82
2021/07/02 09:55:24;;;;;;;6.63;5.65;;;25.20;99.90;;;;;;4966890;28;20402;-82
2021/07/02 09:58:01;;;;;;;6.70;6.05;;;24.90;99.90;;;;;;4976160;28;20227;-82
2021/07/02 10:00:28;;;;;;;11.68;6.03;;;24.70;99.90;;;;;;4988889;28;20188;-83
2021/07/02 10:02:57;;;;;;;9.27;6.13;;;24.50;99.90;;;;;;4986380;28;20826;-82
2021/07/02 10:05:26;;;;;;;9.73;6.60;;;24.60;99.90;;;;;;4975372;28;20208;-81
2021/07/02 10:08:04;;;;;;;8.75;6.25;;;24.30;99.90;;;;;;4966433;28;20216;-82
2021/07/02 10:10:32;;;;;;;8.48;6.00;;;23.90;99.90;;;;;;4966144;28;20211;-82
2021/07/02 10:13:00;;;;;;;7.18;5.85;;;23.60;99.90;;;;;;4965741;28;20304;-82
2021/07/02 10:15:28;;;;;;;7.85;6.53;;;23.70;99.90;;;;;;4985720;28;20531;-83
2021/07/02 10:17:59;;;;;;;9.13;6.00;;;24.10;99.90;;;;;;4986176;28;20543;-83
2021/07/02 10:20:29;;;;;;;6.80;5.53;;;24.10;99.90;;;;;;4966725;28;20777;-81
2021/07/02 10:22:58;;;;;;;8.85;5.97;;;24.10;99.90;;;;;;4966859;28;20215;-87
2021/07/02 10:25:27;;;;;;;9.68;5.70;;;23.90;99.90;;;;;;4966249;28;20235;-84
2021/07/02 10:27:54;;;;;;;6.22;5.60;;;23.80;99.90;;;;;;4965912;28;20608;-82
2021/07/02 10:30:24;;;;;;;7.72;6.20;;;23.70;99.90;;;;;;4965735;28;20327;-82
2021/07/02 10:32:54;;;;;;;9.40;5.82;;;23.90;99.90;;;;;;4965987;28;20212;-82
2021/07/02 10:35:21;;;;;;;7.28;6.00;;;23.90;99.90;;;;;;4965405;28;20204;-81
2021/07/02 10:37:54;;;;;;;6.20;5.57;;;24.00;99.90;;;;;;4968289;28;20212;-85
2021/07/02 10:40:42;;;;;;;7.95;6.05;;;24.30;99.90;;;;;;4968221;28;20193;-81
2021/07/02 10:43:15;;;;;;;7.43;5.75;;;24.40;99.90;;;;;;4965857;28;20208;-84
2021/07/02 10:46:25;;;;;;;11.48;6.18;;;24.30;99.90;;;;;;4968063;28;20235;-82
2021/07/02 10:48:56;;;;;;;7.88;6.10;;;24.10;99.90;;;;;;4953898;28;20225;-84
2021/07/02 10:51:46;;;;;;;9.65;5.50;;;23.70;99.90;;;;;;4968219;28;20282;-79
2021/07/02 10:54:33;;;;;;;7.25;5.43;;;23.60;99.90;;;;;;4982301;28;20303;-83
2021/07/02 10:57:08;;;;;;;6.72;5.53;;;23.70;99.90;;;;;;4985131;28;20214;-83
2021/07/02 11:00:18;;;;;;;8.30;5.72;;;23.90;99.90;;;;;;4985905;28;20204;-85
2021/07/02 11:02:46;;;;;;;8.18;6.10;;;24.10;99.90;;;;;;4961273;28;20209;-82
2021/07/02 11:05:34;;;;;;;7.47;6.43;;;24.30;99.90;;;;;;4966049;28;20220;-83
2021/07/02 11:08:01;;;;;;;6.47;5.88;;;24.50;99.90;;;;;;4979219;28;20211;-83
2021/07/02 11:10:59;;;;;;;7.97;6.03;;;24.70;99.90;;;;;;4967216;28;20211;-85
2021/07/02 11:13:26;;;;;;;6.43;5.35;;;24.80;99.90;;;;;;4970328;28;20876;-83
2021/07/02 11:16:18;;;;;;;7.63;5.55;;;25.00;99.90;;;;;;4968341;28;20903;-84
2021/07/02 11:18:45;;;;;;;7.25;5.40;;;25.10;99.90;;;;;;4967918;28;20279;-80
2021/07/02 11:21:16;;;;;;;6.93;6.22;;;25.10;99.90;;;;;;4968597;28;20207;-83
2021/07/02 11:23:43;;;;;;;6.20;5.30;;;25.20;99.90;;;;;;4967425;28;20197;-82
2021/07/02 11:26:40;;;;;;;8.90;6.70;;;25.10;99.90;;;;;;4966157;28;20215;-83
2021/07/02 11:29:07;;;;;;;8.45;5.90;;;25.00;99.90;;;;;;4966696;28;20935;-83
2021/07/02 11:31:38;;;;;;;6.47;5.57;;;24.80;99.90;;;;;;4967729;28;20244;-88
2021/07/02 11:34:18;;;;;;;6.45;5.75;;;24.80;99.90;;;;;;4970419;28;20211;-83
2021/07/02 11:37:14;;;;;;;7.95;5.63;;;24.80;99.90;;;;;;4979242;28;20219;-81
2021/07/02 11:39:45;;;;;;;6.90;5.88;;;24.70;99.90;;;;;;4966995;28;20336;-81
2021/07/02 11:42:14;;;;;;;10.75;6.10;;;24.50;99.90;;;;;;4965905;28;20216;-82
2021/07/02 11:44:41;;;;;;;6.53;5.22;;;24.40;99.90;;;;;;4967485;28;20324;-82
2021/07/02 11:47:08;;;;;;;7.70;5.85;;;24.50;99.90;;;;;;4985391;28;20207;-82
2021/07/02 11:49:50;;;;;;;9.02;6.68;;;24.70;99.90;;;;;;4985422;28;20231;-83
2021/07/02 11:52:17;;;;;;;9.05;5.75;;;24.70;99.90;;;;;;4985956;28;20204;-80
2021/07/02 11:54:51;;;;;;;6.45;5.65;;;24.70;99.90;;;;;;4972060;28;20264;-82
2021/07/02 11:57:26;;;;;;;6.40;5.53;;;24.80;99.90;;;;;;4966560;28;20222;-83
2021/07/02 11:59:58;;;;;;;6.45;5.63;;;25.00;99.90;;;;;;4965400;28;20207;-80
2021/07/02 12:02:25;;;;;;;5.72;5.03;;;25.20;99.90;;;;;;4965916;28;20213;-82
2021/07/02 12:05:02;;;;;;;6.38;5.05;;;25.20;99.90;;;;;;4965797;28;20591;-81
2021/07/02 12:07:29;;;;;;;7.22;5.68;;;25.40;99.90;;;;;;4965118;28;20601;-79
2021/07/02 12:09:56;;;;;;;7.80;5.88;;;25.40;99.90;;;;;;4966388;28;20446;-81
2021/07/02 12:12:23;;;;;;;6.15;5.40;;;25.40;99.90;;;;;;4947997;28;20904;-81
2021/07/02 12:14:51;;;;;;;6.35;5.30;;;25.50;99.90;;;;;;4967663;28;20213;-80
2021/07/02 12:17:19;;;;;;;6.65;5.15;;;25.40;99.90;;;;;;4966762;28;20216;-81
2021/07/02 12:19:46;;;;;;;6.45;5.40;;;25.10;99.90;;;;;;4978425;28;20215;-84
2021/07/02 12:22:14;;;;;;;6.60;5.60;;;25.10;99.90;;;;;;4986180;28;20200;-82
2021/07/02 12:24:42;;;;;;;6.40;5.60;;;24.90;99.90;;;;;;4986432;28;20208;-82
2021/07/02 12:27:12;;;;;;;7.47;5.43;;;24.90;99.90;;;;;;4968477;28;20894;-83
2021/07/02 12:29:39;;;;;;;7.35;5.20;;;25.00;99.90;;;;;;4967463;28;20299;-83
2021/07/02 12:32:10;;;;;;;7.30;5.57;;;24.80;99.90;;;;;;4966178;28;20215;-82
2021/07/02 12:34:39;;;;;;;6.18;4.78;;;24.80;99.90;;;;;;4968656;28;20884;-85
2021/07/02 12:37:08;;;;;;;6.55;5.30;;;24.70;99.90;;;;;;4973044;28;20205;-84
2021/07/02 12:39:36;;;;;;;7.43;5.63;;;24.60;99.90;;;;;;4969805;28;20223;-84
2021/07/02 12:42:09;;;;;;;7.32;5.70;;;24.80;99.90;;;;;;4970098;28;20209;-85
2021/07/02 12:44:38;;;;;;;9.20;5.43;;;24.80;99.90;;;;;;4969872;28;20235;-85
2021/07/02 12:47:08;;;;;;;7.68;5.30;;;24.70;99.90;;;;;;4969714;28;20209;-83
2021/07/02 12:49:42;;;;;;;9.45;5.50;;;24.50;99.90;;;;;;4969589;28;20228;-83
2021/07/02 12:54:58;;;;;;;7.97;6.03;;;24.10;99.90;;;;;;4964650;28;20679;-81